Time;durP1;ratioP1;P1;durP2;ratioP2;P2;SDS_P1;SDS_P2;PMS_P1;PMS_P2;Temp;Humidity;BMP_temperature;BMP_pressure;BME280_temperature;BME280_humidity;BME280_pressure;Samples;Min_cycle;Max_cycle;Signal;HPM_P1;HPM_P2
2021/03/27 00:00:26;;;;;;;13.80;10.35;;;-0.70;99.90;;;;;;4321784;32;20075;-57
2021/03/27 00:03:18;;;;;;;14.43;9.68;;;-0.60;99.90;;;;;;4324007;33;20067;-57
2021/03/27 00:06:05;;;;;;;14.23;9.30;;;-0.90;99.90;;;;;;4319845;33;20154;-58
2021/03/27 00:09:09;;;;;;;15.20;9.63;;;-0.80;99.90;;;;;;4323670;33;20071;-57
2021/03/27 00:11:46;;;;;;;16.83;9.82;;;-1.00;99.90;;;;;;4321701;33;20078;-57
2021/03/27 00:14:22;;;;;;;15.10;9.00;;;-0.90;99.90;;;;;;4317872;33;20083;-57
2021/03/27 00:17:00;;;;;;;12.90;9.25;;;-1.00;99.90;;;;;;4318680;33;20182;-57
2021/03/27 00:19:36;;;;;;;15.00;9.20;;;-1.00;99.90;;;;;;4317145;33;20245;-57
2021/03/27 00:22:22;;;;;;;12.05;8.90;;;-1.00;99.90;;;;;;4329580;33;20082;-57
2021/03/27 00:25:10;;;;;;;15.27;9.30;;;-1.00;99.90;;;;;;4319764;33;20098;-57
2021/03/27 00:27:52;;;;;;;13.20;8.48;;;-1.00;99.90;;;;;;4327634;33;20175;-57
2021/03/27 00:30:27;;;;;;;12.60;8.50;;;-1.00;99.90;;;;;;4320953;33;20098;-57
2021/03/27 00:32:54;;;;;;;12.55;7.70;;;-0.90;99.90;;;;;;4320753;33;20106;-57
2021/03/27 00:35:37;;;;;;;11.80;7.82;;;-1.00;99.90;;;;;;4333891;33;20065;-58
2021/03/27 00:38:07;;;;;;;11.85;7.97;;;-1.00;99.90;;;;;;4320760;33;20091;-57
2021/03/27 00:40:41;;;;;;;13.77;8.02;;;-1.10;99.90;;;;;;4334683;33;20066;-57
2021/03/27 00:43:17;;;;;;;12.10;7.85;;;-1.10;99.90;;;;;;4321790;33;20063;-57
2021/03/27 00:45:48;;;;;;;12.35;7.85;;;-1.10;99.90;;;;;;4318197;33;20086;-58
2021/03/27 00:48:48;;;;;;;10.98;8.27;;;-1.10;99.90;;;;;;4315233;33;20078;-57
2021/03/27 00:51:24;;;;;;;10.82;7.62;;;-1.10;99.90;;;;;;4320865;33;20472;-56
2021/03/27 00:53:59;;;;;;;11.05;8.48;;;-1.10;99.90;;;;;;4332841;33;20460;-57
2021/03/27 00:56:34;;;;;;;11.12;8.10;;;-1.10;99.90;;;;;;4319341;33;20122;-56
2021/03/27 00:59:08;;;;;;;13.43;8.73;;;-1.20;99.90;;;;;;4319281;33;20052;-58
2021/03/27 01:01:44;;;;;;;10.27;7.15;;;-1.30;99.90;;;;;;4316497;33;20098;-57
2021/03/27 01:04:13;;;;;;;11.48;8.00;;;-1.40;99.90;;;;;;4327238;33;20075;-58
2021/03/27 01:06:58;;;;;;;11.85;7.93;;;-1.40;99.90;;;;;;4314599;33;20079;-57
2021/03/27 01:09:50;;;;;;;10.82;7.90;;;-1.40;99.90;;;;;;4319594;33;20083;-56
2021/03/27 01:12:38;;;;;;;11.43;7.75;;;-1.40;99.90;;;;;;4326637;33;20557;-57
2021/03/27 01:15:13;;;;;;;11.65;7.60;;;-1.30;99.90;;;;;;4333373;32;20516;-57
2021/03/27 01:17:45;;;;;;;10.32;7.95;;;-1.30;99.90;;;;;;4309589;33;20450;-57
2021/03/27 01:20:33;;;;;;;11.12;7.75;;;-1.40;99.90;;;;;;4327446;33;20147;-58
2021/03/27 01:22:59;;;;;;;10.55;6.97;;;-1.40;99.90;;;;;;4327454;33;20174;-57
2021/03/27 01:25:29;;;;;;;11.65;7.70;;;-1.40;99.90;;;;;;4320615;33;20522;-57
2021/03/27 01:28:31;;;;;;;10.38;7.25;;;-1.40;99.90;;;;;;4328784;33;20080;-57
2021/03/27 01:31:24;;;;;;;12.77;7.80;;;-1.40;99.90;;;;;;4327152;33;20095;-56
2021/03/27 01:34:17;;;;;;;12.15;7.62;;;-1.40;99.90;;;;;;4323707;32;20082;-56
2021/03/27 01:37:19;;;;;;;11.88;8.30;;;-1.50;99.90;;;;;;4327785;33;20071;-56
2021/03/27 01:40:47;;;;;;;12.98;8.25;;;-1.40;99.90;;;;;;4324319;32;20075;-56
2021/03/27 01:43:31;;;;;;;13.17;7.77;;;-1.40;99.90;;;;;;4275269;33;20171;-56
2021/03/27 01:46:19;;;;;;;14.38;8.25;;;-1.40;99.90;;;;;;4325849;33;20167;-57
2021/03/27 01:49:26;;;;;;;11.55;8.13;;;-1.50;99.90;;;;;;4335291;33;20519;-57
2021/03/27 01:52:37;;;;;;;13.15;8.68;;;-1.50;99.90;;;;;;4351775;32;20093;-58
2021/03/27 01:55:26;;;;;;;15.98;9.25;;;-1.50;99.90;;;;;;4369568;32;20077;-57
2021/03/27 01:58:15;;;;;;;13.98;8.95;;;-1.50;99.90;;;;;;4336882;33;20653;-57
2021/03/27 02:00:52;;;;;;;14.52;9.52;;;-1.50;99.90;;;;;;4338922;32;20073;-57
2021/03/27 02:03:21;;;;;;;15.30;9.18;;;-1.50;99.90;;;;;;4337324;33;20513;-58
2021/03/27 02:06:09;;;;;;;14.23;9.05;;;-1.40;99.90;;;;;;4321353;33;20082;-57
2021/03/27 02:08:44;;;;;;;;;;;-1.40;99.90;;;;;;4329845;32;20090;-57
2021/03/27 02:11:34;;;;;;;11.90;8.23;;;-1.40;99.90;;;;;;4344868;32;20079;-57
2021/03/27 02:14:43;;;;;;;12.18;7.90;;;-1.40;99.90;;;;;;4338652;33;20075;-56
2021/03/27 02:17:29;;;;;;;14.13;8.05;;;-1.50;99.90;;;;;;4337701;32;20114;-56
2021/03/27 02:20:52;;;;;;;10.45;7.32;;;-1.50;99.90;;;;;;4337265;32;20074;-56
2021/03/27 02:23:56;;;;;;;10.98;7.12;;;-1.50;99.90;;;;;;4361674;32;20058;-57
2021/03/27 02:26:52;;;;;;;10.80;7.22;;;-1.50;99.90;;;;;;4342451;32;20511;-56
2021/03/27 02:29:39;;;;;;;10.98;7.25;;;-1.50;99.90;;;;;;4333366;33;20081;-56
2021/03/27 02:32:12;;;;;;;10.73;7.15;;;-1.60;99.90;;;;;;4335331;33;20512;-56
2021/03/27 02:35:15;;;;;;;10.20;7.05;;;-1.50;99.90;;;;;;4332418;33;20059;-57
2021/03/27 02:38:26;;;;;;;9.88;6.95;;;-1.60;99.90;;;;;;4366520;32;20078;-56
2021/03/27 02:41:34;;;;;;;9.65;6.65;;;-1.50;99.90;;;;;;4340750;33;20083;-57
2021/03/27 02:44:18;;;;;;;11.55;7.03;;;-1.40;99.90;;;;;;4334601;32;20075;-57
2021/03/27 02:46:46;;;;;;;10.75;6.90;;;-1.30;99.90;;;;;;4336939;32;20079;-56
2021/03/27 02:49:25;;;;;;;9.65;7.18;;;-1.50;99.90;;;;;;4345413;33;20143;-56
2021/03/27 02:52:25;;;;;;;11.70;6.85;;;-1.40;99.90;;;;;;4349543;32;20181;-56
2021/03/27 02:54:57;;;;;;;10.00;6.78;;;-1.50;99.90;;;;;;4334086;33;20171;-56
2021/03/27 02:58:02;;;;;;;10.23;6.65;;;-1.50;99.90;;;;;;4345525;32;20081;-57
2021/03/27 03:00:40;;;;;;;10.60;6.87;;;-1.50;99.90;;;;;;4353605;32;20154;-56
2021/03/27 03:03:17;;;;;;;10.48;7.30;;;-1.40;99.90;;;;;;4336780;33;20079;-57
2021/03/27 03:05:56;;;;;;;10.43;6.80;;;-1.40;99.90;;;;;;4336096;32;20106;-56
2021/03/27 03:08:57;;;;;;;10.07;6.62;;;-1.40;99.90;;;;;;4327404;32;20237;-56
2021/03/27 03:11:29;;;;;;;9.55;6.32;;;-1.40;99.90;;;;;;4347356;32;20086;-58
2021/03/27 03:13:56;;;;;;;10.07;6.05;;;-1.40;99.90;;;;;;4324276;32;20082;-57
2021/03/27 03:16:46;;;;;;;9.75;6.60;;;-1.30;99.90;;;;;;4320561;33;20087;-57
2021/03/27 03:19:20;;;;;;;8.27;5.95;;;-1.30;99.90;;;;;;4317794;32;20171;-57
2021/03/27 03:22:12;;;;;;;7.68;5.35;;;-1.40;99.90;;;;;;4332024;33;20090;-56
2021/03/27 03:24:48;;;;;;;9.25;6.22;;;-1.20;99.90;;;;;;4328108;32;20149;-58
2021/03/27 03:27:35;;;;;;;10.60;6.90;;;-1.20;99.90;;;;;;4335892;32;20101;-57
2021/03/27 03:30:48;;;;;;;10.80;6.97;;;-1.30;99.90;;;;;;4336339;32;20520;-58
2021/03/27 03:33:37;;;;;;;11.88;6.50;;;-1.10;99.90;;;;;;4320594;33;20059;-57
2021/03/27 03:36:12;;;;;;;10.27;6.50;;;-0.90;99.90;;;;;;4335834;32;20146;-56
2021/03/27 03:39:24;;;;;;;10.02;7.18;;;-1.00;99.90;;;;;;4348331;32;20068;-56
2021/03/27 03:42:02;;;;;;;9.70;6.40;;;-0.70;99.90;;;;;;4318228;32;20081;-56
2021/03/27 03:44:48;;;;;;;11.32;7.37;;;-0.90;99.90;;;;;;4346644;32;20070;-56
2021/03/27 03:47:44;;;;;;;10.50;7.50;;;-0.90;99.90;;;;;;4360121;32;20098;-56
2021/03/27 03:50:23;;;;;;;10.27;7.05;;;-0.70;99.90;;;;;;4340947;32;20154;-58
2021/03/27 03:53:32;;;;;;;10.55;7.12;;;-0.70;99.90;;;;;;4326299;33;20075;-57
2021/03/27 03:56:17;;;;;;;11.18;6.50;;;-0.60;99.90;;;;;;4319295;33;20074;-57
2021/03/27 03:58:49;;;;;;;10.13;6.40;;;-0.60;99.90;;;;;;4341560;32;20077;-56
2021/03/27 04:01:41;;;;;;;8.88;5.97;;;-0.60;99.90;;;;;;4333635;32;20106;-57
2021/03/27 04:04:20;;;;;;;9.30;6.80;;;-0.50;99.90;;;;;;4307618;32;20097;-56
2021/03/27 04:06:47;;;;;;;8.15;5.30;;;-0.40;99.90;;;;;;4342910;33;20508;-57
2021/03/27 04:09:59;;;;;;;8.00;5.40;;;-0.40;99.90;;;;;;4331502;32;20156;-56
2021/03/27 04:12:36;;;;;;;9.07;5.72;;;-0.30;99.90;;;;;;4316964;32;20489;-57
2021/03/27 04:15:40;;;;;;;9.35;5.68;;;-0.10;99.90;;;;;;4332378;33;20160;-57
2021/03/27 04:18:28;;;;;;;6.18;3.80;;;-0.10;99.90;;;;;;4339391;32;20069;-56
2021/03/27 04:21:21;;;;;;;9.57;5.43;;;0.10;99.90;;;;;;4360998;32;20051;-58
2021/03/27 04:24:10;;;;;;;7.97;4.57;;;0.30;99.90;;;;;;4324912;32;20071;-56
2021/03/27 04:26:36;;;;;;;9.65;5.75;;;0.30;99.90;;;;;;4332263;33;20063;-56
2021/03/27 04:29:18;;;;;;;7.25;4.78;;;0.60;99.90;;;;;;4355925;32;20063;-58
2021/03/27 04:32:32;;;;;;;7.25;4.82;;;0.90;99.90;;;;;;4334913;32;20065;-56
2021/03/27 04:35:10;;;;;;;7.90;5.65;;;0.80;99.90;;;;;;4348639;33;20143;-57
2021/03/27 04:37:44;;;;;;;7.65;5.45;;;0.70;99.90;;;;;;4368230;32;20123;-56
2021/03/27 04:40:26;;;;;;;7.68;5.40;;;0.80;99.90;;;;;;4346080;32;20058;-57
2021/03/27 04:42:58;;;;;;;7.28;4.87;;;0.80;99.90;;;;;;4375888;32;20094;-56
2021/03/27 04:45:49;;;;;;;7.75;5.47;;;1.10;99.90;;;;;;4344290;32;20081;-58
2021/03/27 04:49:12;;;;;;;7.45;5.30;;;1.00;99.90;;;;;;4338059;32;20157;-57
2021/03/27 04:51:46;;;;;;;9.10;5.55;;;1.10;99.90;;;;;;4343432;33;20579;-57
2021/03/27 04:54:28;;;;;;;7.15;4.87;;;1.00;99.90;;;;;;4321057;33;20081;-57
2021/03/27 04:57:18;;;;;;;8.10;5.57;;;1.00;99.90;;;;;;4319195;33;20540;-56
2021/03/27 05:00:02;;;;;;;7.72;5.10;;;1.10;99.90;;;;;;4345981;33;20146;-58
2021/03/27 05:03:06;;;;;;;7.78;5.87;;;1.10;99.90;;;;;;4323421;33;20155;-57
2021/03/27 05:06:04;;;;;;;7.85;5.28;;;1.20;99.90;;;;;;4310443;33;20086;-58
2021/03/27 05:08:58;;;;;;;8.40;5.50;;;1.10;99.90;;;;;;4319051;33;20060;-56
2021/03/27 05:11:50;;;;;;;9.30;5.30;;;1.30;99.90;;;;;;4330051;33;20552;-57
2021/03/27 05:14:56;;;;;;;7.15;5.05;;;1.50;99.90;;;;;;4332273;33;20138;-56
2021/03/27 05:17:44;;;;;;;6.95;4.60;;;1.40;99.90;;;;;;4310806;33;20075;-57
2021/03/27 05:20:27;;;;;;;6.43;4.55;;;1.40;99.90;;;;;;4333058;33;20078;-56
2021/03/27 05:23:15;;;;;;;7.53;5.45;;;1.60;99.90;;;;;;4319639;33;20095;-56
2021/03/27 05:25:44;;;;;;;9.00;5.85;;;1.50;99.90;;;;;;4331672;33;20063;-56
2021/03/27 05:28:27;;;;;;;7.80;5.28;;;1.50;99.90;;;;;;4329347;33;20079;-56
2021/03/27 05:31:21;;;;;;;7.37;5.28;;;1.60;99.90;;;;;;4326731;33;20126;-57
2021/03/27 05:34:30;;;;;;;7.72;5.47;;;1.60;99.90;;;;;;4321145;33;20075;-56
2021/03/27 05:37:28;;;;;;;8.95;5.85;;;1.70;99.90;;;;;;4312073;33;20063;-58
2021/03/27 05:40:25;;;;;;;7.68;5.05;;;1.60;99.90;;;;;;4306409;33;20075;-57
2021/03/27 05:43:12;;;;;;;6.80;4.90;;;1.90;99.90;;;;;;4341161;33;20059;-58
2021/03/27 05:45:57;;;;;;;7.97;5.30;;;1.90;99.90;;;;;;4343533;33;20063;-57
2021/03/27 05:48:48;;;;;;;9.02;5.30;;;2.00;99.90;;;;;;4317522;33;20121;-56
2021/03/27 05:52:03;;;;;;;7.87;5.37;;;1.90;99.90;;;;;;4333598;33;20149;-56
2021/03/27 05:54:41;;;;;;;6.72;4.95;;;2.00;99.90;;;;;;4333021;33;20071;-57
2021/03/27 05:57:17;;;;;;;8.13;6.00;;;2.20;99.90;;;;;;4322139;33;20071;-56
2021/03/27 06:00:17;;;;;;;8.00;4.90;;;2.20;99.90;;;;;;4342155;33;20518;-56
2021/03/27 06:03:23;;;;;;;7.07;5.50;;;2.20;99.90;;;;;;4326234;33;20494;-55
2021/03/27 06:06:30;;;;;;;6.20;4.50;;;2.10;99.90;;;;;;4324744;33;20066;-57
2021/03/27 06:09:35;;;;;;;8.50;5.35;;;2.30;99.90;;;;;;4341604;33;20069;-57
2021/03/27 06:12:48;;;;;;;8.15;5.12;;;2.20;99.90;;;;;;4326780;33;20144;-58
2021/03/27 06:15:17;;;;;;;8.40;5.87;;;2.50;99.90;;;;;;4340390;33;20568;-57
2021/03/27 06:18:23;;;;;;;8.15;5.78;;;2.30;99.90;;;;;;4333694;33;20576;-57
2021/03/27 06:21:03;;;;;;;8.18;4.93;;;2.40;99.90;;;;;;4338128;32;20091;-57
2021/03/27 06:23:51;;;;;;;8.60;5.40;;;2.60;99.90;;;;;;4332548;33;20521;-57
2021/03/27 06:26:52;;;;;;;8.35;5.43;;;2.60;99.90;;;;;;4313346;33;20106;-56
2021/03/27 06:30:13;;;;;;;10.43;7.22;;;2.50;99.90;;;;;;4331131;33;20086;-57
2021/03/27 06:33:14;;;;;;;8.30;5.57;;;2.50;99.90;;;;;;4327251;33;20074;-56
2021/03/27 06:36:21;;;;;;;8.20;6.15;;;2.70;99.90;;;;;;4333302;33;20178;-57
2021/03/27 06:39:31;;;;;;;14.60;7.25;;;2.50;99.90;;;;;;4321883;33;20163;-57
2021/03/27 06:42:54;;;;;;;8.85;6.85;;;2.60;99.90;;;;;;4311605;33;20157;-57
2021/03/27 06:45:56;;;;;;;8.40;5.60;;;2.60;99.90;;;;;;4274094;33;20075;-59
2021/03/27 06:48:38;;;;;;;8.00;5.32;;;2.80;99.90;;;;;;4258908;33;20069;-56
2021/03/27 06:51:30;;;;;;;10.40;6.28;;;2.90;99.90;;;;;;4350294;32;20454;-57
2021/03/27 06:54:27;;;;;;;8.50;6.65;;;2.70;99.90;;;;;;4304512;33;20090;-56
2021/03/27 06:57:36;;;;;;;8.85;5.65;;;2.80;99.90;;;;;;4334202;33;20085;-57
2021/03/27 07:00:33;;;;;;;11.73;7.10;;;2.90;99.90;;;;;;4333907;32;20172;-57
2021/03/27 07:03:20;;;;;;;10.43;7.70;;;2.80;99.90;;;;;;4341149;33;20109;-56
2021/03/27 07:06:24;;;;;;;9.07;6.20;;;3.00;99.90;;;;;;4321605;33;20073;-57
2021/03/27 07:08:53;;;;;;;8.27;5.50;;;3.20;99.90;;;;;;4318453;33;20106;-58
2021/03/27 07:11:49;;;;;;;8.85;6.43;;;3.20;99.90;;;;;;4334933;33;20059;-57
2021/03/27 07:14:59;;;;;;;9.70;6.60;;;2.90;99.90;;;;;;4318623;33;20474;-58
2021/03/27 07:18:13;;;;;;;9.00;6.60;;;3.20;99.90;;;;;;4342316;33;20138;-57
2021/03/27 07:21:09;;;;;;;6.90;5.03;;;3.10;99.90;;;;;;4326912;33;20071;-57
2021/03/27 07:24:01;;;;;;;9.25;7.00;;;3.30;99.90;;;;;;4315212;32;20493;-56
2021/03/27 07:27:07;;;;;;;10.95;6.43;;;3.20;99.90;;;;;;4336942;33;20068;-55
2021/03/27 07:29:56;;;;;;;10.90;7.57;;;3.20;99.90;;;;;;4331467;33;20157;-57
2021/03/27 07:32:50;;;;;;;11.63;7.03;;;3.30;99.90;;;;;;4335949;33;20052;-57
2021/03/27 07:36:06;;;;;;;11.25;6.90;;;3.30;99.90;;;;;;4320104;33;20514;-56
2021/03/27 07:39:15;;;;;;;11.48;7.78;;;3.30;99.90;;;;;;4337403;33;20074;-56
2021/03/27 07:41:51;;;;;;;10.68;6.53;;;3.40;99.90;;;;;;4333989;32;20059;-58
2021/03/27 07:44:33;;;;;;;13.20;7.47;;;3.10;99.90;;;;;;4324385;33;20063;-56
2021/03/27 07:48:04;;;;;;;9.38;6.50;;;3.40;99.90;;;;;;4348023;32;20094;-56
2021/03/27 07:50:55;;;;;;;7.37;5.50;;;3.30;99.90;;;;;;4311684;33;20067;-57
2021/03/27 07:53:21;;;;;;;11.43;6.87;;;3.40;99.90;;;;;;4318757;33;20059;-56
2021/03/27 07:56:09;;;;;;;10.45;6.60;;;3.40;99.90;;;;;;4320673;33;20509;-56
2021/03/27 07:59:19;;;;;;;9.35;6.68;;;3.30;99.90;;;;;;4342860;32;20078;-59
2021/03/27 08:01:52;;;;;;;9.13;6.10;;;3.20;99.90;;;;;;4331134;32;20539;-57
2021/03/27 08:04:50;;;;;;;9.73;6.18;;;3.30;99.90;;;;;;4336039;33;20082;-57
2021/03/27 08:07:40;;;;;;;;;;;3.10;99.90;;;;;;4331179;33;20155;-56
2021/03/27 08:10:34;;;;;;;9.32;6.07;;;3.30;99.90;;;;;;4329640;33;20384;-57
2021/03/27 08:13:25;;;;;;;8.73;5.85;;;3.30;99.90;;;;;;4339745;32;20079;-59
2021/03/27 08:16:17;;;;;;;8.07;5.55;;;3.30;99.90;;;;;;4324270;33;20070;-56
2021/03/27 08:18:58;;;;;;;10.55;6.45;;;3.30;99.90;;;;;;4325744;33;20067;-56
2021/03/27 08:21:46;;;;;;;9.85;6.62;;;3.50;99.90;;;;;;4340636;33;20069;-57
2021/03/27 08:24:40;;;;;;;9.60;6.18;;;3.30;99.90;;;;;;4339074;33;20075;-57
2021/03/27 08:27:24;;;;;;;9.30;5.55;;;3.40;99.90;;;;;;4351888;32;20077;-57
2021/03/27 08:30:40;;;;;;;12.63;7.37;;;3.60;99.90;;;;;;4324656;33;20063;-56
2021/03/27 08:33:44;;;;;;;9.43;5.97;;;3.40;99.90;;;;;;4338009;32;20067;-56
2021/03/27 08:36:50;;;;;;;8.75;6.00;;;3.60;99.90;;;;;;4326467;33;20524;-57
2021/03/27 08:39:26;;;;;;;8.50;5.43;;;3.90;99.90;;;;;;4344733;33;20065;-58
2021/03/27 08:42:26;;;;;;;7.72;4.93;;;4.00;99.90;;;;;;4330504;33;20064;-58
2021/03/27 08:45:23;;;;;;;10.48;6.25;;;3.70;99.90;;;;;;4342522;32;20467;-58
2021/03/27 08:48:42;;;;;;;9.45;6.30;;;3.80;99.90;;;;;;4323925;33;20579;-58
2021/03/27 08:51:59;;;;;;;9.95;5.90;;;4.10;99.90;;;;;;4340300;33;20165;-57
2021/03/27 08:54:50;;;;;;;8.80;6.53;;;4.40;99.90;;;;;;4314525;33;20091;-56
2021/03/27 08:58:07;;;;;;;10.88;7.18;;;4.50;99.90;;;;;;4290285;33;20104;-56
2021/03/27 09:00:39;;;;;;;8.75;5.80;;;4.00;99.90;;;;;;4318563;33;20059;-57
2021/03/27 09:03:21;;;;;;;10.52;7.40;;;4.30;99.90;;;;;;4344715;33;20123;-58
2021/03/27 09:06:29;;;;;;;11.43;7.18;;;4.60;99.90;;;;;;4323575;33;20108;-58
2021/03/27 09:09:40;;;;;;;11.70;7.80;;;4.20;99.90;;;;;;4347041;33;20150;-57
2021/03/27 09:12:28;;;;;;;10.38;7.57;;;4.40;99.90;;;;;;4324856;33;20217;-58
2021/03/27 09:15:16;;;;;;;11.82;7.25;;;4.10;99.90;;;;;;4347472;33;20105;-57
2021/03/27 09:18:08;;;;;;;11.55;5.40;;;4.40;99.90;;;;;;4348571;32;20576;-58
2021/03/27 09:21:06;;;;;;;10.13;7.25;;;4.50;99.90;;;;;;4343210;32;20070;-57
2021/03/27 09:23:38;;;;;;;;;;;4.50;99.90;;;;;;4349440;32;20184;-57
2021/03/27 09:26:34;;;;;;;9.05;7.30;;;4.40;99.90;;;;;;4348662;33;19986;-56
2021/03/27 09:29:38;;;;;;;12.18;8.13;;;4.50;99.90;;;;;;4347549;33;20094;-55
2021/03/27 09:32:24;;;;;;;11.68;7.53;;;4.40;99.90;;;;;;4338097;33;20071;-56
2021/03/27 09:35:40;;;;;;;10.48;6.90;;;4.40;99.90;;;;;;4325129;33;20089;-58
2021/03/27 09:38:27;;;;;;;9.30;6.53;;;4.50;99.90;;;;;;4352151;33;20093;-57
2021/03/27 09:41:10;;;;;;;10.82;7.20;;;4.50;99.90;;;;;;4346330;33;20162;-60
2021/03/27 09:43:36;;;;;;;7.35;5.20;;;4.50;99.90;;;;;;4334495;33;20141;-56
2021/03/27 09:46:24;;;;;;;9.25;6.72;;;4.50;99.90;;;;;;4332343;33;20442;-56
2021/03/27 09:48:59;;;;;;;8.80;6.22;;;4.70;99.90;;;;;;4341657;33;20445;-59
2021/03/27 09:52:04;;;;;;;9.75;7.20;;;4.50;99.90;;;;;;4353592;32;20122;-57
2021/03/27 09:55:05;;;;;;;8.85;6.30;;;4.20;99.90;;;;;;4330980;33;20498;-56
2021/03/27 09:57:50;;;;;;;10.23;7.18;;;4.30;99.90;;;;;;4332143;33;20166;-56
2021/03/27 10:00:47;;;;;;;6.72;5.30;;;4.20;99.90;;;;;;4338549;33;20082;-56
2021/03/27 10:03:52;;;;;;;7.97;5.85;;;4.30;99.90;;;;;;4333265;33;20068;-58
2021/03/27 10:07:09;;;;;;;9.05;5.70;;;4.30;99.90;;;;;;4312823;33;20068;-57
2021/03/27 10:10:34;;;;;;;10.10;6.13;;;4.20;99.90;;;;;;4318379;33;20094;-59
2021/03/27 10:13:05;;;;;;;8.88;6.25;;;4.40;99.90;;;;;;4329131;33;20172;-57
2021/03/27 10:15:51;;;;;;;8.98;6.50;;;4.00;99.90;;;;;;4343630;33;20454;-57
2021/03/27 10:18:38;;;;;;;10.32;6.43;;;4.30;99.90;;;;;;4333000;33;20078;-57
2021/03/27 10:21:26;;;;;;;;;;;4.20;99.90;;;;;;4307597;33;20494;-58
2021/03/27 10:24:12;;;;;;;8.68;6.40;;;4.20;99.90;;;;;;4332730;33;19990;-58
2021/03/27 10:27:04;;;;;;;9.68;6.80;;;4.40;99.90;;;;;;4322118;33;20059;-58
2021/03/27 10:29:44;;;;;;;8.80;6.35;;;4.10;99.90;;;;;;4329481;33;20061;-58
2021/03/27 10:32:25;;;;;;;8.60;6.60;;;4.30;99.90;;;;;;4333345;33;20062;-57
2021/03/27 10:35:41;;;;;;;9.25;6.35;;;4.40;99.90;;;;;;4317306;33;20056;-57
2021/03/27 10:38:21;;;;;;;10.60;6.72;;;4.40;99.90;;;;;;4331548;33;20071;-57
2021/03/27 10:40:48;;;;;;;8.73;6.25;;;4.40;99.90;;;;;;4328016;33;20110;-58
2021/03/27 10:43:31;;;;;;;9.10;5.82;;;4.50;99.90;;;;;;4304351;33;20498;-57
2021/03/27 10:46:08;;;;;;;11.88;6.78;;;4.40;99.90;;;;;;4320507;33;20085;-57
2021/03/27 10:48:44;;;;;;;7.60;5.60;;;4.40;99.90;;;;;;4304042;33;20503;-56
2021/03/27 10:51:51;;;;;;;9.57;6.57;;;4.20;99.90;;;;;;4323846;33;20193;-59
2021/03/27 10:55:11;;;;;;;9.23;6.57;;;4.50;99.90;;;;;;4329443;33;20086;-56
2021/03/27 10:58:21;;;;;;;8.85;6.68;;;4.50;99.90;;;;;;4317884;33;20060;-58
2021/03/27 11:01:21;;;;;;;8.63;6.60;;;4.50;99.90;;;;;;4333427;32;20461;-58
2021/03/27 11:04:25;;;;;;;9.45;6.40;;;4.80;99.90;;;;;;4322923;33;20229;-57
2021/03/27 11:07:19;;;;;;;9.50;6.90;;;4.90;99.90;;;;;;4313796;33;20180;-58
2021/03/27 11:10:27;;;;;;;9.20;6.70;;;4.70;99.90;;;;;;4322620;33;20070;-57
2021/03/27 11:13:43;;;;;;;9.95;7.07;;;4.90;99.90;;;;;;4323987;33;20063;-59
2021/03/27 11:16:24;;;;;;;10.68;6.62;;;4.80;99.90;;;;;;4329054;33;20103;-59
2021/03/27 11:19:08;;;;;;;10.70;7.30;;;4.80;99.90;;;;;;4322649;33;20488;-58
2021/03/27 11:21:53;;;;;;;8.38;5.85;;;4.90;99.90;;;;;;4339953;33;20072;-57
2021/03/27 11:24:32;;;;;;;10.57;7.18;;;4.90;99.90;;;;;;4325233;33;20071;-57
2021/03/27 11:27:41;;;;;;;7.97;6.68;;;5.10;99.90;;;;;;4340266;33;20500;-57
2021/03/27 11:30:16;;;;;;;8.95;6.70;;;4.90;99.90;;;;;;4327247;33;20512;-57
2021/03/27 11:32:50;;;;;;;9.57;6.70;;;5.00;99.90;;;;;;4321919;33;20155;-57
2021/03/27 11:35:34;;;;;;;8.48;6.32;;;5.20;99.90;;;;;;4339956;33;20062;-57
2021/03/27 11:38:06;;;;;;;8.60;5.95;;;5.20;99.90;;;;;;4310016;33;20086;-58
2021/03/27 11:41:02;;;;;;;7.75;5.75;;;4.90;99.90;;;;;;4339376;32;20063;-58
2021/03/27 11:43:51;;;;;;;8.50;6.03;;;4.80;99.90;;;;;;4323973;33;20086;-57
2021/03/27 11:46:35;;;;;;;10.73;6.35;;;4.70;99.90;;;;;;4336768;33;20598;-57
2021/03/27 11:49:39;;;;;;;7.37;5.03;;;4.60;99.90;;;;;;4308996;33;20450;-57
2021/03/27 11:52:26;;;;;;;8.20;5.68;;;4.90;99.90;;;;;;4327374;33;20114;-57
2021/03/27 11:55:08;;;;;;;8.05;5.72;;;4.90;99.90;;;;;;4330129;33;20077;-57
2021/03/27 11:58:00;;;;;;;9.60;6.15;;;4.70;99.90;;;;;;4333346;33;20176;-57
2021/03/27 12:01:02;;;;;;;8.88;6.90;;;4.90;99.90;;;;;;4345979;32;20159;-57
2021/03/27 12:03:50;;;;;;;7.50;5.62;;;4.80;99.90;;;;;;4339762;33;20083;-57
2021/03/27 12:06:30;;;;;;;7.82;5.47;;;4.80;99.90;;;;;;4342274;33;20071;-60
2021/03/27 12:09:27;;;;;;;7.87;5.37;;;4.80;99.90;;;;;;4344897;33;20070;-57
2021/03/27 12:11:53;;;;;;;11.40;6.62;;;4.80;99.90;;;;;;4310289;33;20079;-57
2021/03/27 12:14:34;;;;;;;10.02;5.80;;;4.70;99.90;;;;;;4345437;33;20094;-57
2021/03/27 12:17:35;;;;;;;8.50;5.87;;;4.70;99.90;;;;;;4343111;33;20095;-57
2021/03/27 12:20:44;;;;;;;10.70;7.07;;;4.70;99.90;;;;;;4345719;33;20083;-58
2021/03/27 12:23:24;;;;;;;9.52;6.65;;;4.70;99.90;;;;;;4317934;33;20056;-57
2021/03/27 12:26:07;;;;;;;10.65;7.03;;;4.80;99.90;;;;;;4321312;33;20087;-56
2021/03/27 12:28:48;;;;;;;9.40;6.40;;;4.70;99.90;;;;;;4339490;33;20082;-57
2021/03/27 12:31:48;;;;;;;9.90;5.93;;;4.80;99.90;;;;;;4329973;33;20075;-57
2021/03/27 12:34:38;;;;;;;8.70;5.82;;;4.70;99.90;;;;;;4324333;33;20083;-56
2021/03/27 12:37:39;;;;;;;7.35;4.80;;;4.80;99.90;;;;;;4332411;33;20078;-58
2021/03/27 12:40:34;;;;;;;7.68;5.70;;;4.60;99.90;;;;;;4324641;33;20106;-57
2021/03/27 12:43:18;;;;;;;8.70;5.47;;;4.60;99.90;;;;;;4336587;33;20150;-57
2021/03/27 12:46:09;;;;;;;9.02;6.18;;;4.70;99.90;;;;;;4335613;33;20089;-58
2021/03/27 12:48:47;;;;;;;8.38;6.07;;;4.80;99.90;;;;;;4323303;33;20165;-57
2021/03/27 12:51:57;;;;;;;9.43;6.25;;;4.60;99.90;;;;;;4327690;33;20081;-57
2021/03/27 12:54:35;;;;;;;13.02;6.93;;;4.60;99.90;;;;;;4336177;33;20486;-57
2021/03/27 12:57:41;;;;;;;8.25;5.80;;;4.70;99.90;;;;;;4337111;33;20078;-58
2021/03/27 13:00:42;;;;;;;9.55;5.72;;;4.80;99.90;;;;;;4329747;33;20156;-58
2021/03/27 13:03:45;;;;;;;8.63;6.03;;;4.90;99.90;;;;;;4346363;33;20074;-58
2021/03/27 13:06:51;;;;;;;8.05;4.55;;;4.80;99.90;;;;;;4314573;33;20082;-59
2021/03/27 13:09:36;;;;;;;7.82;5.15;;;4.80;99.90;;;;;;4353641;32;20461;-58
2021/03/27 13:12:16;;;;;;;7.40;5.07;;;4.70;99.90;;;;;;4326252;33;20144;-57
2021/03/27 13:15:26;;;;;;;9.05;5.65;;;4.60;99.90;;;;;;4339143;32;20087;-59
2021/03/27 13:18:33;;;;;;;7.35;4.70;;;4.60;99.90;;;;;;4339833;32;20067;-58
2021/03/27 13:21:11;;;;;;;6.93;4.65;;;4.60;99.90;;;;;;4308152;33;20068;-57
2021/03/27 13:24:01;;;;;;;6.40;4.90;;;4.40;99.90;;;;;;4343626;33;20082;-57
2021/03/27 13:26:31;;;;;;;6.00;3.60;;;4.60;99.90;;;;;;4320697;33;20470;-57
2021/03/27 13:29:35;;;;;;;7.20;4.62;;;4.60;99.90;;;;;;4340280;33;20070;-57
2021/03/27 13:32:23;;;;;;;7.93;5.03;;;4.60;99.90;;;;;;4330874;33;20094;-58
2021/03/27 13:35:06;;;;;;;8.98;4.93;;;4.60;99.90;;;;;;4326125;33;20636;-57
2021/03/27 13:37:47;;;;;;;7.95;6.10;;;4.60;99.90;;;;;;4313707;33;20473;-58
2021/03/27 13:40:27;;;;;;;9.00;6.22;;;4.90;99.90;;;;;;4325955;33;20056;-58
2021/03/27 13:43:23;;;;;;;10.75;6.20;;;4.90;99.90;;;;;;4335741;33;20524;-57
2021/03/27 13:45:57;;;;;;;10.43;6.35;;;5.00;99.90;;;;;;4311207;33;20142;-56
2021/03/27 13:48:29;;;;;;;8.68;6.53;;;4.90;99.90;;;;;;4328138;33;20431;-57
2021/03/27 13:51:11;;;;;;;9.05;6.43;;;4.90;99.90;;;;;;4328832;33;20118;-57
2021/03/27 13:54:11;;;;;;;8.68;6.12;;;4.80;99.90;;;;;;4344915;33;20085;-57
2021/03/27 13:57:21;;;;;;;7.78;5.40;;;4.70;99.90;;;;;;4343033;33;20153;-58
2021/03/27 14:00:13;;;;;;;7.85;5.43;;;4.70;99.90;;;;;;4311837;33;20134;-58
2021/03/27 14:03:05;;;;;;;6.43;4.40;;;4.80;99.90;;;;;;4339663;33;20073;-58
2021/03/27 14:05:42;;;;;;;7.85;4.75;;;4.80;99.90;;;;;;4323348;33;20111;-58
2021/03/27 14:08:32;;;;;;;9.98;5.65;;;4.90;99.90;;;;;;4331999;33;20074;-58
2021/03/27 14:11:08;;;;;;;7.05;4.90;;;4.70;99.90;;;;;;4332528;33;20597;-57
2021/03/27 14:14:00;;;;;;;6.03;4.72;;;4.70;99.90;;;;;;4341005;33;20518;-57
2021/03/27 14:16:38;;;;;;;6.90;4.90;;;4.60;99.90;;;;;;4326838;33;20171;-57
2021/03/27 14:19:55;;;;;;;12.13;8.13;;;4.50;99.90;;;;;;4329790;33;20082;-57
2021/03/27 14:23:11;;;;;;;7.60;5.40;;;4.50;99.90;;;;;;4294593;33;20155;-57
2021/03/27 14:25:48;;;;;;;6.57;4.05;;;4.40;99.90;;;;;;4334866;33;20087;-57
2021/03/27 14:28:45;;;;;;;6.90;4.95;;;4.40;99.90;;;;;;4345085;33;20071;-59
2021/03/27 14:31:31;;;;;;;8.45;5.40;;;4.30;99.90;;;;;;4338732;33;20063;-59
2021/03/27 14:34:18;;;;;;;6.53;4.50;;;4.30;99.90;;;;;;4332600;33;20142;-57
2021/03/27 14:37:11;;;;;;;7.87;4.70;;;4.30;99.90;;;;;;4342525;33;20078;-57
2021/03/27 14:39:52;;;;;;;7.32;4.87;;;4.20;99.90;;;;;;4350460;33;20090;-58
2021/03/27 14:42:32;;;;;;;6.10;4.18;;;4.10;99.90;;;;;;4333465;33;20143;-58
2021/03/27 14:45:14;;;;;;;8.70;4.87;;;4.10;99.90;;;;;;4355537;32;20101;-57
2021/03/27 14:48:05;;;;;;;7.50;4.65;;;4.10;99.90;;;;;;4347948;33;20074;-57
2021/03/27 14:50:45;;;;;;;7.82;5.03;;;4.10;99.90;;;;;;4328024;33;20469;-58